Time;durP1;ratioP1;P1;durP2;ratioP2;P2;SDS_P1;SDS_P2;PMS_P1;PMS_P2;Temp;Humidity;BMP_temperature;BMP_pressure;BME280_temperature;BME280_humidity;BME280_pressure;Samples;Min_cycle;Max_cycle;Signal;HPM_P1;HPM_P2
2022/06/27 00:02:38;;;;;;;3.63;3.05;;;21.50;63.70;;;;;;4913987;29;20056;-45
2022/06/27 00:05:08;;;;;;;5.22;3.47;;;21.50;63.30;;;;;;4914127;29;20051;-46
2022/06/27 00:07:37;;;;;;;5.82;3.42;;;21.50;63.40;;;;;;4907559;29;20040;-48
2022/06/27 00:10:05;;;;;;;3.15;2.95;;;21.50;63.60;;;;;;4914395;29;20036;-47
2022/06/27 00:12:34;;;;;;;3.05;2.85;;;21.50;64.20;;;;;;4914291;29;20040;-50
2022/06/27 00:15:04;;;;;;;3.63;3.13;;;21.50;64.20;;;;;;4909862;29;20423;-45
2022/06/27 00:17:30;;;;;;;3.75;3.03;;;21.50;64.30;;;;;;4913071;29;20104;-48
2022/06/27 00:20:00;;;;;;;3.05;2.55;;;21.50;64.30;;;;;;4913288;29;20123;-47
2022/06/27 00:22:30;;;;;;;3.97;2.97;;;21.50;64.30;;;;;;4913233;29;20051;-49
2022/06/27 00:24:56;;;;;;;4.47;3.10;;;21.50;64.40;;;;;;4905022;29;20044;-45
2022/06/27 00:27:28;;;;;;;4.40;3.15;;;21.50;64.30;;;;;;4913609;29;20032;-47
2022/06/27 00:29:55;;;;;;;4.13;3.08;;;21.50;64.40;;;;;;4909474;29;20054;-48
2022/06/27 00:32:23;;;;;;;4.82;3.40;;;21.50;64.20;;;;;;4913231;29;20046;-48
2022/06/27 00:34:57;;;;;;;3.33;3.03;;;21.50;64.20;;;;;;4887128;29;20409;-45
2022/06/27 00:37:24;;;;;;;3.20;2.90;;;21.50;64.30;;;;;;4914364;29;20036;-46
2022/06/27 00:39:51;;;;;;;5.18;3.78;;;21.60;64.30;;;;;;4913824;29;20056;-46
2022/06/27 00:42:17;;;;;;;3.95;3.60;;;21.50;64.20;;;;;;4906534;29;20100;-45
2022/06/27 00:44:49;;;;;;;3.78;3.40;;;21.50;64.20;;;;;;4903152;29;20723;-46
2022/06/27 00:47:16;;;;;;;4.30;3.30;;;21.60;64.70;;;;;;4903891;29;20055;-47
2022/06/27 00:49:43;;;;;;;3.78;3.30;;;21.60;64.20;;;;;;4912398;29;20052;-50
2022/06/27 00:52:12;;;;;;;6.68;4.57;;;21.50;64.20;;;;;;4906893;29;20041;-46
2022/06/27 00:54:44;;;;;;;6.85;3.75;;;21.50;64.40;;;;;;4903907;29;20131;-47
2022/06/27 00:57:14;;;;;;;4.10;3.20;;;21.60;64.40;;;;;;4909515;29;20051;-49
2022/06/27 00:59:42;;;;;;;5.57;3.28;;;21.50;64.40;;;;;;4913511;29;20048;-47
2022/06/27 01:02:09;;;;;;;4.50;3.83;;;21.50;63.90;;;;;;4911039;29;20665;-45
2022/06/27 01:04:41;;;;;;;6.22;3.45;;;21.50;64.00;;;;;;4905995;29;20112;-48
2022/06/27 01:07:15;;;;;;;5.60;3.38;;;21.50;64.20;;;;;;4911256;29;20052;-46
2022/06/27 01:09:43;;;;;;;4.25;3.45;;;21.60;64.40;;;;;;4880867;29;20048;-45
2022/06/27 01:12:11;;;;;;;5.00;3.78;;;21.50;64.20;;;;;;4897097;29;20056;-46
2022/06/27 01:14:43;;;;;;;4.10;3.70;;;21.50;64.00;;;;;;4913464;29;20039;-46
2022/06/27 01:17:11;;;;;;;;;;;21.50;63.90;;;;;;4912936;29;20040;-47
2022/06/27 01:19:40;;;;;;;3.42;3.13;;;21.60;63.60;;;;;;4911413;29;20004;-48
2022/06/27 01:22:11;;;;;;;4.72;3.30;;;21.50;63.90;;;;;;4910363;29;20052;-47
2022/06/27 01:24:38;;;;;;;4.53;4.00;;;21.50;64.20;;;;;;4919879;29;20516;-46
2022/06/27 01:27:07;;;;;;;3.78;3.47;;;21.50;64.10;;;;;;4911048;29;20146;-47
2022/06/27 01:29:36;;;;;;;6.40;4.28;;;21.50;64.10;;;;;;4908364;29;20059;-47
2022/06/27 01:32:08;;;;;;;4.20;3.88;;;21.50;64.20;;;;;;4912858;29;20036;-46
2022/06/27 01:34:40;;;;;;;4.18;3.75;;;21.50;64.10;;;;;;4911728;29;20040;-46
2022/06/27 01:37:07;;;;;;;5.13;4.00;;;21.50;64.10;;;;;;4924480;29;20156;-45
2022/06/27 01:39:41;;;;;;;6.15;3.45;;;21.50;64.00;;;;;;4891489;29;20437;-46
2022/06/27 01:42:10;;;;;;;3.88;3.47;;;21.40;64.20;;;;;;4910560;29;20052;-46
2022/06/27 01:44:36;;;;;;;4.47;3.47;;;21.50;64.40;;;;;;4911983;29;20119;-48
2022/06/27 01:47:06;;;;;;;5.00;3.55;;;21.50;64.40;;;;;;4907026;29;20059;-47
2022/06/27 01:49:37;;;;;;;4.90;3.80;;;21.50;64.70;;;;;;4905371;29;20048;-47
2022/06/27 01:52:06;;;;;;;5.95;3.95;;;21.50;65.00;;;;;;4901732;29;20747;-45
2022/06/27 01:54:40;;;;;;;4.20;3.47;;;21.50;65.20;;;;;;4906324;29;20051;-48
2022/06/27 01:57:10;;;;;;;6.03;3.72;;;21.50;65.20;;;;;;4908358;29;20611;-46
2022/06/27 01:59:37;;;;;;;7.03;3.20;;;21.50;65.30;;;;;;4899217;29;20134;-46
2022/06/27 02:02:07;;;;;;;4.82;3.40;;;21.50;65.30;;;;;;4910796;29;20049;-47
2022/06/27 02:04:37;;;;;;;4.82;3.33;;;21.50;65.30;;;;;;4911828;29;20053;-45
2022/06/27 02:07:06;;;;;;;3.95;3.58;;;21.50;65.50;;;;;;4913351;29;20073;-47
2022/06/27 02:09:38;;;;;;;5.72;3.75;;;21.50;65.50;;;;;;4908926;29;20092;-49
2022/06/27 02:12:19;;;;;;;7.57;3.67;;;21.50;65.50;;;;;;4914225;29;20469;-46
2022/06/27 02:14:56;;;;;;;8.38;4.93;;;21.50;65.60;;;;;;4914964;29;20071;-47
2022/06/27 02:17:40;;;;;;;5.55;4.25;;;21.60;66.00;;;;;;4908282;29;20420;-45
2022/06/27 02:20:14;;;;;;;7.43;4.18;;;21.50;66.10;;;;;;4915170;29;20064;-46
2022/06/27 02:22:42;;;;;;;4.37;3.97;;;21.50;65.60;;;;;;4914748;29;20100;-46
2022/06/27 02:25:13;;;;;;;6.47;4.53;;;21.50;65.50;;;;;;4909653;29;20119;-50
2022/06/27 02:27:43;;;;;;;6.35;4.10;;;21.50;65.40;;;;;;4904014;29;20129;-48
2022/06/27 02:30:14;;;;;;;4.95;3.80;;;21.50;65.60;;;;;;4916122;29;20052;-49
2022/06/27 02:32:41;;;;;;;4.65;3.58;;;21.50;65.50;;;;;;4915159;29;20612;-46
2022/06/27 02:35:11;;;;;;;5.50;3.83;;;21.50;65.40;;;;;;4909909;29;20052;-46
2022/06/27 02:37:41;;;;;;;5.15;4.22;;;21.50;65.60;;;;;;4903107;29;20040;-48
2022/06/27 02:40:10;;;;;;;4.82;3.88;;;21.50;65.50;;;;;;4915771;29;20059;-47
2022/06/27 02:42:39;;;;;;;4.28;3.88;;;21.50;65.40;;;;;;4903714;29;20500;-48
2022/06/27 02:45:07;;;;;;;4.32;3.75;;;21.50;65.50;;;;;;4903671;29;20139;-46
2022/06/27 02:47:39;;;;;;;4.80;4.30;;;21.50;65.50;;;;;;4914074;29;20524;-46
2022/06/27 02:50:10;;;;;;;5.07;4.32;;;21.40;65.50;;;;;;4915854;29;20044;-46
2022/06/27 02:52:49;;;;;;;5.03;4.28;;;21.40;65.50;;;;;;4908197;29;20088;-46
2022/06/27 02:55:22;;;;;;;5.13;4.53;;;21.40;65.50;;;;;;4906764;29;20040;-48
2022/06/27 02:58:07;;;;;;;6.55;5.20;;;21.40;65.30;;;;;;4907362;29;20550;-46
2022/06/27 03:00:38;;;;;;;7.18;5.05;;;21.40;65.50;;;;;;4913490;29;20052;-50
2022/06/27 03:03:07;;;;;;;;;;;21.40;65.40;;;;;;4910974;29;20555;-46
2022/06/27 03:06:03;;;;;;;4.78;4.32;;;21.40;65.20;;;;;;4914506;29;19927;-45
2022/06/27 03:08:48;;;;;;;6.47;5.85;;;21.40;65.70;;;;;;4907653;29;20123;-46
2022/06/27 03:11:25;;;;;;;5.38;4.82;;;21.40;65.90;;;;;;4899116;29;20049;-46
2022/06/27 03:13:54;;;;;;;6.13;4.70;;;21.40;65.60;;;;;;4909690;29;20543;-46
2022/06/27 03:16:25;;;;;;;5.22;4.72;;;21.30;65.70;;;;;;4904997;29;20036;-47
2022/06/27 03:19:01;;;;;;;5.40;4.90;;;21.30;65.80;;;;;;4914137;29;20512;-47
2022/06/27 03:21:47;;;;;;;5.60;4.88;;;21.40;66.30;;;;;;4911321;29;20055;-46
2022/06/27 03:24:17;;;;;;;6.22;5.63;;;21.30;66.00;;;;;;4895971;29;20131;-47
2022/06/27 03:26:51;;;;;;;9.02;6.32;;;21.30;65.90;;;;;;4905590;29;20055;-45
2022/06/27 03:29:19;;;;;;;6.78;6.07;;;21.30;65.80;;;;;;4913758;29;20099;-45
2022/06/27 03:31:49;;;;;;;6.13;5.32;;;21.30;66.00;;;;;;4903830;29;20056;-46
2022/06/27 03:34:19;;;;;;;8.57;5.72;;;21.20;66.10;;;;;;4907626;29;20055;-46
2022/06/27 03:36:48;;;;;;;6.60;5.32;;;21.20;66.10;;;;;;4898357;29;20052;-48
2022/06/27 03:39:15;;;;;;;7.07;5.38;;;21.20;66.10;;;;;;4895172;29;20040;-46
2022/06/27 03:41:47;;;;;;;7.07;5.72;;;21.20;66.30;;;;;;4904255;29;20052;-47
2022/06/27 03:44:17;;;;;;;6.30;5.68;;;21.20;66.60;;;;;;4915063;29;20404;-48
2022/06/27 03:46:48;;;;;;;5.60;5.03;;;21.30;66.40;;;;;;4898559;29;20467;-46
2022/06/27 03:52:07;;;;;;;5.53;4.97;;;21.20;66.30;;;;;;4911655;29;20044;-47
2022/06/27 03:54:37;;;;;;;6.40;5.32;;;21.20;66.20;;;;;;4908590;29;20393;-46
2022/06/27 03:57:06;;;;;;;5.78;4.85;;;21.20;66.30;;;;;;4906864;29;20052;-48
2022/06/27 03:59:33;;;;;;;5.32;4.85;;;21.20;66.50;;;;;;4906686;29;20073;-46
2022/06/27 04:02:04;;;;;;;7.82;5.00;;;21.20;66.60;;;;;;4912233;29;20056;-48
2022/06/27 04:04:53;;;;;;;5.80;5.22;;;21.20;66.70;;;;;;4918783;29;20044;-45
2022/06/27 04:07:22;;;;;;;5.32;4.82;;;21.30;66.80;;;;;;4909135;29;20052;-46
2022/06/27 04:09:49;;;;;;;5.53;5.03;;;21.20;66.80;;;;;;4913158;29;20064;-47
2022/06/27 04:12:23;;;;;;;6.85;5.45;;;21.20;66.90;;;;;;4911121;29;20040;-46
2022/06/27 04:15:10;;;;;;;7.15;5.85;;;21.20;67.00;;;;;;4914004;29;20633;-47
2022/06/27 04:18:10;;;;;;;5.10;4.63;;;21.30;67.00;;;;;;4908821;29;20063;-46
2022/06/27 04:21:06;;;;;;;5.60;5.10;;;21.30;67.00;;;;;;4853830;29;20110;-46
2022/06/27 04:23:55;;;;;;;7.07;5.13;;;21.30;67.10;;;;;;4900579;29;20096;-48
2022/06/27 04:26:37;;;;;;;4.97;4.57;;;21.30;67.20;;;;;;4895134;29;20052;-47
2022/06/27 04:29:04;;;;;;;6.63;5.32;;;21.30;67.20;;;;;;4896264;29;20048;-45
2022/06/27 04:31:32;;;;;;;7.82;5.57;;;21.30;67.20;;;;;;4895956;29;20040;-48
2022/06/27 04:34:02;;;;;;;9.60;6.28;;;21.40;67.20;;;;;;4894031;29;20046;-45
2022/06/27 04:36:33;;;;;;;6.65;5.30;;;21.40;67.20;;;;;;4917062;29;20052;-48
2022/06/27 04:38:59;;;;;;;6.60;5.78;;;21.40;66.90;;;;;;4893675;29;20052;-46
2022/06/27 04:41:49;;;;;;;7.88;5.72;;;21.40;66.70;;;;;;4912949;29;20056;-45
2022/06/27 04:44:16;;;;;;;7.15;5.97;;;21.50;67.00;;;;;;4897396;29;20044;-46
2022/06/27 04:46:47;;;;;;;5.45;4.93;;;21.50;66.90;;;;;;4891097;29;20139;-46
2022/06/27 04:49:30;;;;;;;5.88;4.90;;;21.50;66.90;;;;;;4913469;29;20044;-45
2022/06/27 04:51:59;;;;;;;7.03;5.95;;;21.50;67.10;;;;;;4912574;29;20044;-47
2022/06/27 04:54:26;;;;;;;6.43;5.65;;;21.60;67.00;;;;;;4914370;29;20046;-47
2022/06/27 04:56:58;;;;;;;6.20;5.60;;;21.60;67.00;;;;;;4895409;29;20516;-46
2022/06/27 04:59:29;;;;;;;7.50;6.32;;;21.60;67.00;;;;;;4913325;29;20400;-46
2022/06/27 05:02:10;;;;;;;6.78;5.32;;;21.60;66.90;;;;;;4911163;29;20456;-46
2022/06/27 05:04:37;;;;;;;5.70;5.05;;;21.60;66.80;;;;;;4905110;29;20389;-48
2022/06/27 05:07:04;;;;;;;7.20;5.43;;;21.60;66.80;;;;;;4911752;29;20419;-46
2022/06/27 05:09:31;;;;;;;8.82;6.32;;;21.60;66.80;;;;;;4905475;29;20419;-47
2022/06/27 05:12:00;;;;;;;6.35;5.63;;;21.70;66.70;;;;;;4893437;29;20041;-46
2022/06/27 05:14:29;;;;;;;5.82;5.32;;;21.70;66.80;;;;;;4912790;29;20544;-46
2022/06/27 05:16:58;;;;;;;7.82;6.07;;;21.70;66.70;;;;;;4910547;29;20059;-46
2022/06/27 05:19:29;;;;;;;8.15;5.40;;;21.70;66.60;;;;;;4911624;29;20047;-46
2022/06/27 05:21:57;;;;;;;5.88;5.28;;;21.70;66.80;;;;;;4910281;29;20044;-47
2022/06/27 05:24:26;;;;;;;6.82;6.10;;;21.70;67.00;;;;;;4904880;29;20048;-47
2022/06/27 05:26:56;;;;;;;7.05;6.45;;;21.70;66.90;;;;;;4912442;29;20465;-45
2022/06/27 05:29:25;;;;;;;8.13;6.25;;;21.70;66.90;;;;;;4894057;29;20100;-46
2022/06/27 05:31:54;;;;;;;9.00;6.07;;;21.70;66.80;;;;;;4902200;29;20088;-49
2022/06/27 05:34:29;;;;;;;7.13;6.43;;;21.70;66.60;;;;;;4891096;29;20059;-45
2022/06/27 05:36:56;;;;;;;9.48;6.50;;;21.70;66.30;;;;;;4911209;29;20044;-51
2022/06/27 05:39:25;;;;;;;7.03;6.32;;;21.70;66.40;;;;;;4906002;29;20055;-51
2022/06/27 05:41:52;;;;;;;7.15;6.45;;;21.70;66.40;;;;;;4912854;29;20052;-47
2022/06/27 05:44:24;;;;;;;8.23;6.43;;;21.70;66.40;;;;;;4896283;29;20071;-46
2022/06/27 05:46:58;;;;;;;7.03;6.00;;;21.70;66.60;;;;;;4912189;29;20636;-47
2022/06/27 05:49:49;;;;;;;8.15;5.82;;;21.70;66.70;;;;;;4915047;29;20044;-49
2022/06/27 05:52:16;;;;;;;8.63;6.40;;;21.80;66.70;;;;;;4910490;29;20040;-47
2022/06/27 05:54:47;;;;;;;5.70;5.20;;;21.90;66.60;;;;;;4910695;29;20044;-49
2022/06/27 05:57:16;;;;;;;9.35;5.70;;;21.90;66.60;;;;;;4907611;29;20051;-47
2022/06/27 05:59:44;;;;;;;6.82;6.13;;;22.00;66.50;;;;;;4909667;29;20058;-47
2022/06/27 06:02:14;;;;;;;6.85;5.72;;;22.00;66.30;;;;;;4899955;29;20052;-45
2022/06/27 06:04:47;;;;;;;8.65;5.97;;;22.00;66.10;;;;;;4903890;29;20064;-48
2022/06/27 06:07:14;;;;;;;9.32;5.80;;;22.10;66.10;;;;;;4916464;29;20047;-45
2022/06/27 06:09:43;;;;;;;8.07;6.32;;;22.10;65.90;;;;;;4920716;29;20108;-47
2022/06/27 06:12:15;;;;;;;6.45;5.80;;;22.10;65.80;;;;;;4900294;29;20076;-46
2022/06/27 06:14:46;;;;;;;7.47;5.72;;;22.10;65.80;;;;;;4916258;29;20063;-46
2022/06/27 06:17:13;;;;;;;6.45;5.53;;;22.20;65.90;;;;;;4916845;29;20045;-45
2022/06/27 06:19:41;;;;;;;7.00;5.72;;;22.20;65.60;;;;;;4913483;29;20044;-46
2022/06/27 06:22:08;;;;;;;7.20;6.40;;;22.20;65.60;;;;;;4895963;29;20056;-49
2022/06/27 06:24:36;;;;;;;7.80;6.45;;;22.20;65.70;;;;;;4915764;29;20337;-49
2022/06/27 06:27:08;;;;;;;6.45;5.85;;;22.30;65.80;;;;;;4912969;29;20135;-48
2022/06/27 06:29:36;;;;;;;6.72;6.03;;;22.30;65.60;;;;;;4894884;29;20054;-46
2022/06/27 06:32:04;;;;;;;6.38;5.75;;;22.40;65.30;;;;;;4912651;29;20051;-46
2022/06/27 06:34:35;;;;;;;8.25;5.38;;;22.40;65.20;;;;;;4908562;29;20472;-48
2022/06/27 06:37:07;;;;;;;6.90;6.20;;;22.50;65.50;;;;;;4914525;29;20049;-47
2022/06/27 06:39:41;;;;;;;8.35;6.05;;;22.50;65.40;;;;;;4910881;29;20040;-47
2022/06/27 06:42:11;;;;;;;6.72;5.95;;;22.60;65.40;;;;;;4914372;29;20059;-46
2022/06/27 06:44:47;;;;;;;7.20;6.50;;;22.60;65.50;;;;;;4915106;29;20060;-47
2022/06/27 06:47:33;;;;;;;6.63;5.93;;;22.70;65.30;;;;;;4912190;29;20526;-48
2022/06/27 06:50:07;;;;;;;7.15;6.28;;;22.70;65.00;;;;;;4908578;29;20193;-48
2022/06/27 06:52:34;;;;;;;6.60;5.88;;;22.80;64.90;;;;;;4915382;29;20043;-47
2022/06/27 06:55:04;;;;;;;7.78;6.63;;;22.80;64.70;;;;;;4917124;29;20539;-47
2022/06/27 06:57:30;;;;;;;7.75;7.10;;;22.90;64.40;;;;;;4923190;29;20384;-47
2022/06/27 07:00:00;;;;;;;7.30;6.55;;;22.90;64.10;;;;;;4916849;29;20131;-49
2022/06/27 07:02:35;;;;;;;7.60;6.75;;;22.90;64.00;;;;;;4909104;29;20515;-48
2022/06/27 07:05:03;;;;;;;7.00;6.22;;;23.00;63.90;;;;;;4913409;29;20044;-45
2022/06/27 07:07:33;;;;;;;7.45;5.53;;;23.00;63.60;;;;;;4913150;29;20047;-49
2022/06/27 07:10:00;;;;;;;6.32;5.80;;;23.00;63.80;;;;;;4913278;29;20068;-48
2022/06/27 07:12:33;;;;;;;6.75;6.05;;;23.10;63.80;;;;;;4915209;29;20563;-47
2022/06/27 07:15:03;;;;;;;7.40;5.57;;;23.10;63.60;;;;;;4913242;29;20044;-47
2022/06/27 07:17:38;;;;;;;9.30;6.25;;;23.20;63.80;;;;;;4915247;29;20412;-48
2022/06/27 07:20:06;;;;;;;6.68;6.03;;;23.20;63.30;;;;;;4919887;29;20081;-50
2022/06/27 07:22:35;;;;;;;7.40;6.30;;;23.20;63.00;;;;;;4912577;29;20040;-46
2022/06/27 07:25:02;;;;;;;9.27;7.55;;;23.30;62.80;;;;;;4914838;29;20044;-50
2022/06/27 07:27:33;;;;;;;7.25;6.55;;;23.30;62.30;;;;;;4912790;29;20440;-48
2022/06/27 07:30:02;;;;;;;9.07;6.80;;;23.30;62.20;;;;;;4915477;29;20567;-47
2022/06/27 07:32:29;;;;;;;7.43;6.72;;;23.50;62.40;;;;;;4914701;29;20048;-51
2022/06/27 07:34:58;;;;;;;9.88;6.43;;;23.50;62.10;;;;;;4913422;29;20044;-46
2022/06/27 07:37:26;;;;;;;9.10;7.13;;;23.60;62.20;;;;;;4908002;29;20044;-48
2022/06/27 07:39:58;;;;;;;6.90;6.20;;;23.70;62.10;;;;;;4915600;29;20056;-47
2022/06/27 07:42:27;;;;;;;6.93;6.22;;;23.80;61.70;;;;;;4914602;29;20508;-47
2022/06/27 07:44:59;;;;;;;7.20;6.50;;;23.90;61.70;;;;;;4908742;29;20044;-46
2022/06/27 07:47:27;;;;;;;7.90;6.25;;;24.00;61.10;;;;;;4911629;29;20123;-46
2022/06/27 07:49:58;;;;;;;7.30;6.10;;;24.10;60.50;;;;;;4910945;29;20044;-49
2022/06/27 07:52:25;;;;;;;6.30;5.70;;;24.20;59.90;;;;;;4914749;29;20448;-45
2022/06/27 07:54:52;;;;;;;7.55;6.35;;;24.20;59.70;;;;;;4913836;29;20067;-50
2022/06/27 07:57:21;;;;;;;6.97;5.95;;;24.10;59.70;;;;;;4911003;29;20071;-46
2022/06/27 07:59:54;;;;;;;6.03;5.53;;;24.10;59.30;;;;;;4914962;29;20044;-46
2022/06/27 08:02:20;;;;;;;6.20;5.55;;;24.20;58.80;;;;;;4913828;29;20048;-48
2022/06/27 08:04:49;;;;;;;5.68;5.05;;;24.10;58.40;;;;;;4909185;29;20055;-47
2022/06/27 08:07:15;;;;;;;6.78;5.85;;;24.00;58.40;;;;;;4914178;29;20044;-47
2022/06/27 08:09:43;;;;;;;7.07;5.90;;;24.00;58.50;;;;;;4918627;29;20043;-48
2022/06/27 08:12:11;;;;;;;6.03;4.80;;;23.90;58.70;;;;;;4922215;29;20115;-47
2022/06/27 08:14:41;;;;;;;6.30;5.20;;;23.90;59.20;;;;;;4915238;29;20036;-46
2022/06/27 08:17:08;;;;;;;5.95;5.45;;;23.80;59.40;;;;;;4914627;29;20496;-48
2022/06/27 08:19:46;;;;;;;6.10;5.40;;;23.80;59.50;;;;;;4915649;29;20059;-46
2022/06/27 08:22:14;;;;;;;6.40;5.47;;;23.80;59.80;;;;;;4909481;29;20442;-46
2022/06/27 08:24:44;;;;;;;5.55;5.05;;;23.80;60.00;;;;;;4912478;29;20092;-46
2022/06/27 08:27:11;;;;;;;5.53;4.88;;;23.90;60.70;;;;;;4913346;29;20044;-48
2022/06/27 08:29:41;;;;;;;6.15;5.65;;;23.90;60.40;;;;;;4915428;29;20056;-47
2022/06/27 08:32:10;;;;;;;5.60;4.97;;;24.00;59.90;;;;;;4924896;29;20539;-46
2022/06/27 08:34:37;;;;;;;5.20;4.80;;;24.00;59.70;;;;;;4914999;29;20097;-47
2022/06/27 08:37:04;;;;;;;6.15;5.45;;;24.00;59.70;;;;;;4914329;29;20500;-48
2022/06/27 08:39:32;;;;;;;5.93;5.32;;;24.10;60.10;;;;;;4913622;29;20070;-49
2022/06/27 08:41:59;;;;;;;5.93;5.20;;;24.10;59.80;;;;;;4906337;29;20733;-48
2022/06/27 08:44:29;;;;;;;5.63;5.22;;;24.10;59.60;;;;;;4915200;29;20095;-46
2022/06/27 08:46:57;;;;;;;5.88;5.32;;;24.20;59.20;;;;;;4910890;29;20447;-48
2022/06/27 08:49:30;;;;;;;8.73;6.00;;;24.20;58.90;;;;;;4914618;29;20087;-50
2022/06/27 08:51:57;;;;;;;7.10;5.50;;;24.10;59.20;;;;;;4916476;29;20111;-47
2022/06/27 08:54:27;;;;;;;8.05;7.22;;;24.20;59.70;;;;;;4918809;29;20040;-49
2022/06/27 08:56:56;;;;;;;6.28;5.65;;;24.20;59.70;;;;;;4909629;29;20095;-46
2022/06/27 08:59:23;;;;;;;6.93;6.22;;;24.20;59.60;;;;;;4912627;29;20044;-47
2022/06/27 09:01:50;;;;;;;6.38;5.47;;;24.30;59.60;;;;;;4911015;29;20451;-47
2022/06/27 09:04:20;;;;;;;5.97;5.43;;;24.40;58.80;;;;;;4907063;29;20048;-47
2022/06/27 09:06:48;;;;;;;7.10;6.47;;;24.40;58.80;;;;;;4913770;29;20048;-46
2022/06/27 09:09:15;;;;;;;8.57;6.75;;;24.50;58.70;;;;;;4910473;29;20096;-45
2022/06/27 09:11:46;;;;;;;6.72;5.65;;;24.60;58.50;;;;;;4913580;29;20452;-48
2022/06/27 09:14:41;;;;;;;6.18;5.53;;;24.70;58.60;;;;;;4916261;29;20040;-46
2022/06/27 09:17:15;;;;;;;7.90;7.03;;;24.80;57.60;;;;;;4916310;29;20563;-46
2022/06/27 09:19:50;;;;;;;6.03;5.53;;;24.90;57.40;;;;;;4908428;29;20048;-49
2022/06/27 09:22:25;;;;;;;8.35;6.55;;;25.00;57.50;;;;;;4900387;29;20457;-48
2022/06/27 09:25:12;;;;;;;7.38;6.60;;;25.00;56.90;;;;;;4918201;29;20050;-48
2022/06/27 09:27:51;;;;;;;7.15;5.57;;;25.10;55.70;;;;;;4908953;29;20048;-46
2022/06/27 09:30:20;;;;;;;6.57;5.85;;;25.10;55.90;;;;;;4918008;29;20132;-46
2022/06/27 09:32:50;;;;;;;9.40;6.18;;;25.10;55.60;;;;;;4917851;29;20048;-46
2022/06/27 09:35:25;;;;;;;7.35;5.45;;;25.10;55.00;;;;;;4918121;29;20047;-48
2022/06/27 09:37:59;;;;;;;6.20;5.57;;;25.10;54.60;;;;;;4913057;29;20044;-46
2022/06/27 09:40:30;;;;;;;8.95;6.40;;;25.10;55.10;;;;;;4911336;29;20059;-48
2022/06/27 09:43:06;;;;;;;7.47;5.65;;;25.20;54.80;;;;;;4917219;29;20492;-47
2022/06/27 09:45:37;;;;;;;7.45;5.50;;;25.20;55.10;;;;;;4914634;29;20054;-46
2022/06/27 09:48:15;;;;;;;6.50;5.72;;;25.20;54.80;;;;;;4916991;29;20048;-45
2022/06/27 09:50:47;;;;;;;7.15;6.45;;;25.20;54.70;;;;;;4916925;29;20115;-48
2022/06/27 09:53:15;;;;;;;8.55;7.60;;;25.30;54.80;;;;;;4917536;29;20063;-46
2022/06/27 09:55:46;;;;;;;8.02;7.18;;;25.20;54.80;;;;;;4913338;29;20670;-46
2022/06/27 09:58:16;;;;;;;10.90;7.03;;;25.30;54.60;;;;;;4917007;29;20051;-46
2022/06/27 10:00:45;;;;;;;10.88;7.50;;;25.30;54.90;;;;;;4917558;29;20051;-49
2022/06/27 10:03:12;;;;;;;8.05;7.28;;;25.30;55.00;;;;;;4917385;29;20044;-48
2022/06/27 10:05:48;;;;;;;9.18;8.32;;;25.30;54.90;;;;;;4913476;29;20040;-52
2022/06/27 10:08:16;;;;;;;10.85;8.60;;;25.40;54.90;;;;;;4916835;29;20047;-48
2022/06/27 10:11:02;;;;;;;10.55;9.52;;;25.40;55.00;;;;;;4916391;29;20560;-51
2022/06/27 10:13:34;;;;;;;11.65;8.95;;;25.40;54.60;;;;;;4917559;29;20066;-46
2022/06/27 10:16:13;;;;;;;8.35;6.28;;;25.40;54.90;;;;;;4910790;29;20047;-46
2022/06/27 10:19:02;;;;;;;8.85;4.85;;;25.40;54.10;;;;;;4906986;29;20117;-47
2022/06/27 10:21:42;;;;;;;5.15;3.97;;;25.40;52.90;;;;;;4910748;29;20042;-46
2022/06/27 10:24:30;;;;;;;5.28;3.63;;;25.40;52.80;;;;;;4917798;29;20048;-47
2022/06/27 10:27:04;;;;;;;4.45;4.03;;;25.50;52.10;;;;;;4912192;29;20044;-47
2022/06/27 10:29:45;;;;;;;5.75;4.32;;;25.50;52.30;;;;;;4918839;29;20036;-46
2022/06/27 10:32:44;;;;;;;5.55;4.90;;;25.50;52.50;;;;;;4922398;29;20467;-48
2022/06/27 10:35:15;;;;;;;5.20;4.65;;;25.50;52.50;;;;;;4907457;29;20225;-49
2022/06/27 10:37:46;;;;;;;6.22;4.72;;;25.60;52.70;;;;;;4916419;29;20039;-46
2022/06/27 10:40:21;;;;;;;7.25;5.85;;;25.70;52.50;;;;;;4916396;29;20044;-47
2022/06/27 10:42:48;;;;;;;7.55;6.53;;;25.80;51.80;;;;;;4911735;29;20048;-46
2022/06/27 10:45:21;;;;;;;8.63;6.45;;;25.90;51.70;;;;;;4916655;29;20036;-46
2022/06/27 10:47:58;;;;;;;8.52;6.60;;;26.10;51.30;;;;;;4912015;29;20369;-46
2022/06/27 10:50:28;;;;;;;8.05;6.38;;;26.20;51.80;;;;;;4909555;29;20044;-49
2022/06/27 10:53:25;;;;;;;7.03;6.25;;;26.20;51.60;;;;;;4912265;29;20048;-46
2022/06/27 10:55:52;;;;;;;7.22;5.97;;;26.40;52.10;;;;;;4916145;29;20099;-48
2022/06/27 10:58:27;;;;;;;7.93;6.47;;;26.50;52.30;;;;;;4908934;29;20103;-50
2022/06/27 11:01:18;;;;;;;8.18;6.20;;;26.60;51.30;;;;;;4910649;29;20076;-48
2022/06/27 11:03:46;;;;;;;6.43;5.82;;;26.80;51.40;;;;;;4909583;29;20607;-47
2022/06/27 11:06:14;;;;;;;9.52;5.97;;;26.90;50.90;;;;;;4915321;29;20048;-46
2022/06/27 11:08:46;;;;;;;6.88;5.50;;;27.10;50.80;;;;;;4916186;29;20043;-46
2022/06/27 11:11:22;;;;;;;6.55;5.20;;;27.20;49.40;;;;;;4918984;29;20096;-48
2022/06/27 11:13:52;;;;;;;6.07;5.10;;;27.30;49.30;;;;;;4916327;29;20044;-46
2022/06/27 11:16:31;;;;;;;7.85;4.95;;;27.50;48.50;;;;;;4915568;29;20420;-49
2022/06/27 11:19:00;;;;;;;5.63;5.13;;;27.60;47.70;;;;;;4913960;29;20083;-46
2022/06/27 11:21:32;;;;;;;6.85;4.30;;;27.60;46.80;;;;;;4914641;29;20040;-47
2022/06/27 11:24:03;;;;;;;5.25;4.80;;;27.70;46.00;;;;;;4916573;29;20504;-45
2022/06/27 11:26:34;;;;;;;8.95;5.88;;;27.80;46.10;;;;;;4912741;29;20116;-47
2022/06/27 11:32:11;;;;;;;7.28;5.47;;;27.90;46.40;;;;;;4910422;29;20108;-48
2022/06/27 11:34:50;;;;;;;7.05;6.35;;;27.90;46.40;;;;;;4913464;29;20051;-49
2022/06/27 11:37:22;;;;;;;9.18;6.18;;;27.90;45.90;;;;;;4914497;29;20475;-47
2022/06/27 11:40:07;;;;;;;9.00;6.53;;;27.80;46.10;;;;;;4911749;29;20047;-49
2022/06/27 11:42:35;;;;;;;6.60;6.10;;;27.80;46.40;;;;;;4909257;29;20047;-49
2022/06/27 11:45:11;;;;;;;8.70;6.40;;;27.70;46.60;;;;;;4915285;29;20416;-46
2022/06/27 11:47:42;;;;;;;6.00;5.38;;;27.70;47.10;;;;;;4912635;29;20040;-46
2022/06/27 11:50:14;;;;;;;6.60;6.00;;;27.60;47.00;;;;;;4902492;29;20123;-48
2022/06/27 11:52:42;;;;;;;6.53;4.20;;;27.60;47.30;;;;;;4903431;29;20459;-47
2022/06/27 11:55:19;;;;;;;7.22;4.80;;;27.60;46.40;;;;;;4914300;29;20071;-52
2022/06/27 11:57:51;;;;;;;6.57;4.93;;;27.50;45.50;;;;;;4911139;29;20044;-47
2022/06/27 12:00:33;;;;;;;5.82;5.25;;;27.50;45.80;;;;;;4914628;29;20055;-51
2022/06/27 12:03:12;;;;;;;8.77;5.78;;;27.40;46.60;;;;;;4914434;29;20044;-47
2022/06/27 12:05:42;;;;;;;5.75;5.13;;;27.50;47.50;;;;;;4912721;29;20631;-47
2022/06/27 12:08:11;;;;;;;5.00;4.55;;;27.50;47.80;;;;;;4909403;29;20530;-51
2022/06/27 12:10:41;;;;;;;5.40;4.20;;;27.60;48.10;;;;;;4914996;29;20099;-49
2022/06/27 12:13:16;;;;;;;4.72;4.32;;;27.80;48.30;;;;;;4914057;29;20048;-48
2022/06/27 12:15:46;;;;;;;7.75;4.07;;;27.90;47.80;;;;;;4911188;29;20481;-47
2022/06/27 12:18:16;;;;;;;4.85;3.95;;;28.10;48.30;;;;;;4913427;29;20040;-48
2022/06/27 12:20:44;;;;;;;4.65;4.25;;;28.20;48.00;;;;;;4903236;29;20044;-51
2022/06/27 12:23:11;;;;;;;6.50;4.38;;;28.40;48.00;;;;;;4905361;29;20099;-47
2022/06/27 12:25:37;;;;;;;7.97;4.53;;;28.60;47.00;;;;;;4905913;29;20095;-49
2022/06/27 12:28:06;;;;;;;3.55;3.25;;;28.80;46.30;;;;;;4911480;29;20793;-45
2022/06/27 12:30:33;;;;;;;4.63;3.80;;;29.00;46.00;;;;;;4913746;29;20036;-47
2022/06/27 12:33:00;;;;;;;5.65;3.55;;;29.20;45.00;;;;;;4913255;29;20083;-47
2022/06/27 12:35:27;;;;;;;2.63;2.42;;;29.30;43.90;;;;;;4911198;29;20047;-48
2022/06/27 12:38:02;;;;;;;2.83;2.55;;;29.50;43.10;;;;;;4894553;29;20048;-49
2022/06/27 12:40:33;;;;;;;3.25;2.95;;;29.40;42.70;;;;;;4913278;29;20067;-48
2022/06/27 12:43:05;;;;;;;3.60;3.30;;;29.60;43.70;;;;;;4905587;29;20040;-46
2022/06/27 12:45:34;;;;;;;3.95;2.67;;;29.70;43.20;;;;;;4909125;29;20040;-47
2022/06/27 12:48:05;;;;;;;3.85;2.95;;;29.70;43.60;;;;;;4911760;29;20048;-47
2022/06/27 12:50:36;;;;;;;4.10;3.10;;;29.80;42.60;;;;;;4914359;29;20044;-46
2022/06/27 12:53:03;;;;;;;3.33;3.03;;;29.80;42.60;;;;;;4914369;29;20044;-46
2022/06/27 12:55:31;;;;;;;3.67;2.95;;;29.70;42.50;;;;;;4911526;29;20037;-50
2022/06/27 12:58:01;;;;;;;3.33;3.03;;;29.70;43.70;;;;;;4913862;29;20043;-47
2022/06/27 13:00:28;;;;;;;3.67;2.53;;;29.70;43.10;;;;;;4914056;29;20052;-50
2022/06/27 13:02:55;;;;;;;4.47;2.63;;;29.70;43.30;;;;;;4913307;29;20048;-47
2022/06/27 13:05:31;;;;;;;5.32;4.03;;;29.80;43.00;;;;;;4909732;29;20119;-50
2022/06/27 13:07:58;;;;;;;3.25;2.88;;;29.80;43.20;;;;;;4914360;29;20048;-48
2022/06/27 13:10:30;;;;;;;3.20;2.90;;;29.80;42.80;;;;;;4914263;29;20068;-49
2022/06/27 13:12:57;;;;;;;4.40;3.83;;;29.90;42.70;;;;;;4908143;29;20049;-47
2022/06/27 13:15:23;;;;;;;4.20;3.80;;;29.90;42.50;;;;;;4914296;29;20559;-49
2022/06/27 13:17:53;;;;;;;4.00;3.50;;;29.80;42.30;;;;;;4914340;29;20406;-50